sensor_id;sensor_type;location;lat;lon;timestamp;P1;durP1;ratioP1;P2;durP2;ratioP2
793;SDS011;380;48.738;9.214;2023-02-28T00:00:51;1.53;;;1.43;;
793;SDS011;380;48.738;9.214;2023-02-28T00:03:17;3.23;;;2.07;;
793;SDS011;380;48.738;9.214;2023-02-28T00:05:43;0.97;;;0.70;;
793;SDS011;380;48.738;9.214;2023-02-28T00:08:09;2.07;;;1.17;;
793;SDS011;380;48.738;9.214;2023-02-28T00:10:35;3.20;;;1.53;;
793;SDS011;380;48.738;9.214;2023-02-28T00:13:02;0.90;;;0.70;;
793;SDS011;380;48.738;9.214;2023-02-28T00:15:29;4.93;;;1.17;;
793;SDS011;380;48.738;9.214;2023-02-28T00:17:55;1.70;;;0.97;;
793;SDS011;380;48.738;9.214;2023-02-28T00:20:22;1.60;;;1.17;;
793;SDS011;380;48.738;9.214;2023-02-28T00:22:49;2.03;;;1.73;;
793;SDS011;380;48.738;9.214;2023-02-28T00:25:16;2.77;;;1.07;;
793;SDS011;380;48.738;9.214;2023-02-28T00:27:43;2.40;;;1.53;;
793;SDS011;380;48.738;9.214;2023-02-28T00:30:10;2.00;;;1.83;;
793;SDS011;380;48.738;9.214;2023-02-28T00:32:37;0.73;;;0.60;;
793;SDS011;380;48.738;9.214;2023-02-28T00:35:03;1.20;;;0.90;;
793;SDS011;380;48.738;9.214;2023-02-28T00:37:29;1.57;;;1.20;;
793;SDS011;380;48.738;9.214;2023-02-28T00:39:55;5.60;;;1.33;;
793;SDS011;380;48.738;9.214;2023-02-28T00:42:21;1.27;;;0.73;;
793;SDS011;380;48.738;9.214;2023-02-28T00:44:47;1.23;;;1.07;;
793;SDS011;380;48.738;9.214;2023-02-28T00:47:13;1.10;;;0.80;;
793;SDS011;380;48.738;9.214;2023-02-28T00:49:39;1.10;;;0.73;;
793;SDS011;380;48.738;9.214;2023-02-28T00:52:05;2.73;;;1.40;;
793;SDS011;380;48.738;9.214;2023-02-28T00:54:31;3.23;;;1.37;;
793;SDS011;380;48.738;9.214;2023-02-28T00:56:57;2.57;;;1.33;;
793;SDS011;380;48.738;9.214;2023-02-28T00:59:23;1.87;;;1.10;;
793;SDS011;380;48.738;9.214;2023-02-28T01:01:49;11.33;;;1.60;;
793;SDS011;380;48.738;9.214;2023-02-28T01:04:15;2.43;;;1.83;;
793;SDS011;380;48.738;9.214;2023-02-28T01:06:41;1.77;;;1.57;;
793;SDS011;380;48.738;9.214;2023-02-28T01:09:07;1.80;;;1.33;;
793;SDS011;380;48.738;9.214;2023-02-28T01:11:34;1.50;;;1.33;;
793;SDS011;380;48.738;9.214;2023-02-28T01:14:00;9.70;;;2.10;;
793;SDS011;380;48.738;9.214;2023-02-28T01:16:26;1.07;;;0.67;;
793;SDS011;380;48.738;9.214;2023-02-28T01:18:52;2.33;;;1.53;;
793;SDS011;380;48.738;9.214;2023-02-28T01:21:19;14.93;;;2.60;;
793;SDS011;380;48.738;9.214;2023-02-28T01:23:46;1.50;;;1.30;;
793;SDS011;380;48.738;9.214;2023-02-28T01:26:19;2.00;;;1.40;;
793;SDS011;380;48.738;9.214;2023-02-28T01:28:46;4.43;;;2.07;;
793;SDS011;380;48.738;9.214;2023-02-28T01:31:12;1.33;;;1.00;;
793;SDS011;380;48.738;9.214;2023-02-28T01:33:38;1.40;;;0.90;;
793;SDS011;380;48.738;9.214;2023-02-28T01:36:15;1.03;;;0.80;;
793;SDS011;380;48.738;9.214;2023-02-28T01:38:41;1.70;;;1.40;;
793;SDS011;380;48.738;9.214;2023-02-28T01:41:07;5.03;;;2.00;;
793;SDS011;380;48.738;9.214;2023-02-28T01:46:08;1.70;;;1.60;;
793;SDS011;380;48.738;9.214;2023-02-28T01:48:36;2.33;;;0.77;;
793;SDS011;380;48.738;9.214;2023-02-28T01:51:04;2.00;;;1.80;;
793;SDS011;380;48.738;9.214;2023-02-28T01:53:34;1.50;;;1.30;;
793;SDS011;380;48.738;9.214;2023-02-28T01:56:03;2.67;;;1.43;;
793;SDS011;380;48.738;9.214;2023-02-28T01:58:29;3.50;;;2.33;;
793;SDS011;380;48.738;9.214;2023-02-28T02:00:56;2.50;;;1.73;;
793;SDS011;380;48.738;9.214;2023-02-28T02:03:22;4.27;;;1.87;;
793;SDS011;380;48.738;9.214;2023-02-28T02:05:48;0.70;;;0.53;;
793;SDS011;380;48.738;9.214;2023-02-28T02:08:16;2.60;;;1.83;;
793;SDS011;380;48.738;9.214;2023-02-28T02:10:46;1.50;;;1.07;;
793;SDS011;380;48.738;9.214;2023-02-28T02:18:30;1.97;;;1.87;;
793;SDS011;380;48.738;9.214;2023-02-28T02:34:26;0.80;;;0.57;;
793;SDS011;380;48.738;9.214;2023-02-28T02:39:46;2.00;;;1.63;;
793;SDS011;380;48.738;9.214;2023-02-28T02:42:20;2.10;;;1.70;;
793;SDS011;380;48.738;9.214;2023-02-28T02:44:52;1.13;;;1.03;;
793;SDS011;380;48.738;9.214;2023-02-28T02:47:22;3.77;;;1.80;;
793;SDS011;380;48.738;9.214;2023-02-28T02:49:51;2.07;;;1.57;;
793;SDS011;380;48.738;9.214;2023-02-28T02:52:18;2.37;;;2.17;;
793;SDS011;380;48.738;9.214;2023-02-28T02:54:46;3.83;;;1.10;;
793;SDS011;380;48.738;9.214;2023-02-28T02:57:15;2.07;;;1.17;;
793;SDS011;380;48.738;9.214;2023-02-28T02:59:44;3.23;;;1.90;;
793;SDS011;380;48.738;9.214;2023-02-28T03:02:11;2.73;;;1.83;;
793;SDS011;380;48.738;9.214;2023-02-28T03:04:39;2.90;;;2.00;;
793;SDS011;380;48.738;9.214;2023-02-28T03:07:07;4.33;;;2.13;;
793;SDS011;380;48.738;9.214;2023-02-28T03:09:33;2.10;;;1.37;;
793;SDS011;380;48.738;9.214;2023-02-28T03:12:00;1.67;;;1.53;;
793;SDS011;380;48.738;9.214;2023-02-28T03:22:14;1.50;;;1.40;;
793;SDS011;380;48.738;9.214;2023-02-28T03:27:09;2.80;;;1.70;;
793;SDS011;380;48.738;9.214;2023-02-28T03:29:38;1.10;;;1.00;;
793;SDS011;380;48.738;9.214;2023-02-28T03:32:13;4.13;;;2.10;;
793;SDS011;380;48.738;9.214;2023-02-28T03:34:47;1.23;;;1.10;;
793;SDS011;380;48.738;9.214;2023-02-28T03:37:16;2.50;;;1.73;;
793;SDS011;380;48.738;9.214;2023-02-28T03:39:44;1.93;;;1.73;;
793;SDS011;380;48.738;9.214;2023-02-28T03:42:21;3.47;;;2.07;;
793;SDS011;380;48.738;9.214;2023-02-28T03:45:03;0.77;;;0.77;;
793;SDS011;380;48.738;9.214;2023-02-28T03:49:59;3.33;;;2.63;;
793;SDS011;380;48.738;9.214;2023-02-28T03:52:28;1.77;;;1.30;;
793;SDS011;380;48.738;9.214;2023-02-28T03:54:56;2.60;;;2.00;;
793;SDS011;380;48.738;9.214;2023-02-28T03:57:24;3.70;;;2.10;;
793;SDS011;380;48.738;9.214;2023-02-28T03:59:55;3.40;;;1.77;;
793;SDS011;380;48.738;9.214;2023-02-28T04:02:22;2.47;;;1.87;;
793;SDS011;380;48.738;9.214;2023-02-28T04:04:48;2.53;;;2.33;;
793;SDS011;380;48.738;9.214;2023-02-28T04:07:15;2.93;;;2.33;;
793;SDS011;380;48.738;9.214;2023-02-28T04:09:41;3.20;;;2.27;;
793;SDS011;380;48.738;9.214;2023-02-28T04:12:07;3.63;;;2.90;;
793;SDS011;380;48.738;9.214;2023-02-28T04:14:33;2.20;;;2.00;;
793;SDS011;380;48.738;9.214;2023-02-28T04:16:59;3.80;;;2.13;;
793;SDS011;380;48.738;9.214;2023-02-28T04:19:25;1.70;;;1.60;;
793;SDS011;380;48.738;9.214;2023-02-28T04:21:52;2.70;;;1.47;;
793;SDS011;380;48.738;9.214;2023-02-28T04:24:19;3.50;;;2.50;;
793;SDS011;380;48.738;9.214;2023-02-28T04:26:46;3.80;;;2.50;;
793;SDS011;380;48.738;9.214;2023-02-28T04:29:13;1.97;;;1.80;;
793;SDS011;380;48.738;9.214;2023-02-28T04:31:39;3.73;;;2.60;;
793;SDS011;380;48.738;9.214;2023-02-28T04:34:05;2.83;;;2.13;;
793;SDS011;380;48.738;9.214;2023-02-28T04:36:31;3.00;;;1.97;;
793;SDS011;380;48.738;9.214;2023-02-28T04:38:58;3.20;;;2.07;;
793;SDS011;380;48.738;9.214;2023-02-28T04:41:24;3.23;;;2.80;;
793;SDS011;380;48.738;9.214;2023-02-28T04:43:51;1.73;;;1.53;;
793;SDS011;380;48.738;9.214;2023-02-28T04:46:17;3.27;;;2.17;;
793;SDS011;380;48.738;9.214;2023-02-28T04:48:43;2.67;;;1.97;;
793;SDS011;380;48.738;9.214;2023-02-28T04:51:10;3.10;;;2.33;;
793;SDS011;380;48.738;9.214;2023-02-28T04:53:37;2.10;;;1.57;;
793;SDS011;380;48.738;9.214;2023-02-28T04:56:04;2.17;;;1.67;;
793;SDS011;380;48.738;9.214;2023-02-28T04:58:31;2.07;;;1.83;;
793;SDS011;380;48.738;9.214;2023-02-28T05:01:07;3.37;;;2.67;;
793;SDS011;380;48.738;9.214;2023-02-28T05:03:41;2.47;;;1.80;;
793;SDS011;380;48.738;9.214;2023-02-28T05:06:08;4.37;;;2.90;;
793;SDS011;380;48.738;9.214;2023-02-28T05:08:34;2.23;;;2.03;;
793;SDS011;380;48.738;9.214;2023-02-28T05:11:00;1.87;;;1.50;;
793;SDS011;380;48.738;9.214;2023-02-28T05:13:27;3.20;;;1.80;;
793;SDS011;380;48.738;9.214;2023-02-28T05:15:53;2.93;;;2.63;;
793;SDS011;380;48.738;9.214;2023-02-28T05:18:19;2.57;;;1.83;;
793;SDS011;380;48.738;9.214;2023-02-28T05:20:45;3.10;;;1.97;;
793;SDS011;380;48.738;9.214;2023-02-28T05:23:11;4.73;;;3.07;;
793;SDS011;380;48.738;9.214;2023-02-28T05:25:38;3.00;;;2.17;;
793;SDS011;380;48.738;9.214;2023-02-28T05:28:04;3.80;;;2.47;;
793;SDS011;380;48.738;9.214;2023-02-28T05:30:30;4.43;;;2.90;;
793;SDS011;380;48.738;9.214;2023-02-28T05:32:56;4.70;;;2.63;;
793;SDS011;380;48.738;9.214;2023-02-28T05:35:23;4.40;;;2.73;;
793;SDS011;380;48.738;9.214;2023-02-28T05:37:49;2.40;;;1.80;;
793;SDS011;380;48.738;9.214;2023-02-28T05:40:15;3.53;;;2.87;;
793;SDS011;380;48.738;9.214;2023-02-28T05:42:41;4.47;;;1.73;;
793;SDS011;380;48.738;9.214;2023-02-28T05:45:07;3.17;;;2.00;;
793;SDS011;380;48.738;9.214;2023-02-28T05:47:33;2.13;;;1.20;;
793;SDS011;380;48.738;9.214;2023-02-28T05:49:59;4.20;;;2.80;;
793;SDS011;380;48.738;9.214;2023-02-28T05:52:26;3.33;;;2.53;;
793;SDS011;380;48.738;9.214;2023-02-28T05:54:52;4.60;;;2.30;;
793;SDS011;380;48.738;9.214;2023-02-28T05:57:18;11.53;;;2.57;;
793;SDS011;380;48.738;9.214;2023-02-28T05:59:44;4.73;;;3.40;;
793;SDS011;380;48.738;9.214;2023-02-28T06:02:14;4.37;;;2.80;;
793;SDS011;380;48.738;9.214;2023-02-28T06:04:41;4.53;;;2.28;;
793;SDS011;380;48.738;9.214;2023-02-28T06:07:07;5.10;;;3.90;;
793;SDS011;380;48.738;9.214;2023-02-28T06:09:33;5.13;;;3.63;;
793;SDS011;380;48.738;9.214;2023-02-28T06:11:59;4.17;;;3.53;;
793;SDS011;380;48.738;9.214;2023-02-28T06:14:25;5.67;;;3.40;;
793;SDS011;380;48.738;9.214;2023-02-28T06:16:52;3.20;;;2.07;;
793;SDS011;380;48.738;9.214;2023-02-28T06:19:17;1.97;;;1.60;;
793;SDS011;380;48.738;9.214;2023-02-28T06:21:43;2.53;;;1.83;;
793;SDS011;380;48.738;9.214;2023-02-28T06:24:10;4.17;;;2.83;;
793;SDS011;380;48.738;9.214;2023-02-28T06:26:36;3.70;;;2.77;;
793;SDS011;380;48.738;9.214;2023-02-28T06:29:02;3.30;;;3.00;;
793;SDS011;380;48.738;9.214;2023-02-28T06:31:28;3.80;;;2.17;;
793;SDS011;380;48.738;9.214;2023-02-28T06:33:54;3.43;;;2.80;;
793;SDS011;380;48.738;9.214;2023-02-28T06:36:21;5.27;;;3.27;;
793;SDS011;380;48.738;9.214;2023-02-28T06:38:47;7.23;;;3.80;;
793;SDS011;380;48.738;9.214;2023-02-28T06:41:16;5.87;;;2.90;;
793;SDS011;380;48.738;9.214;2023-02-28T06:43:42;7.03;;;3.47;;
793;SDS011;380;48.738;9.214;2023-02-28T06:46:10;5.70;;;4.00;;
793;SDS011;380;48.738;9.214;2023-02-28T06:48:36;4.80;;;3.37;;
793;SDS011;380;48.738;9.214;2023-02-28T06:51:03;2.87;;;2.50;;
793;SDS011;380;48.738;9.214;2023-02-28T06:53:30;4.77;;;4.33;;
793;SDS011;380;48.738;9.214;2023-02-28T06:55:56;4.03;;;3.60;;
793;SDS011;380;48.738;9.214;2023-02-28T06:58:22;6.30;;;4.13;;
793;SDS011;380;48.738;9.214;2023-02-28T07:00:50;4.33;;;3.57;;
793;SDS011;380;48.738;9.214;2023-02-28T07:03:16;3.43;;;2.57;;
793;SDS011;380;48.738;9.214;2023-02-28T07:05:43;4.97;;;3.93;;
793;SDS011;380;48.738;9.214;2023-02-28T07:08:09;2.97;;;2.07;;
793;SDS011;380;48.738;9.214;2023-02-28T07:10:37;4.80;;;3.70;;
793;SDS011;380;48.738;9.214;2023-02-28T07:13:03;5.60;;;4.50;;
793;SDS011;380;48.738;9.214;2023-02-28T07:15:30;6.10;;;3.23;;
793;SDS011;380;48.738;9.214;2023-02-28T07:17:56;5.57;;;3.83;;
793;SDS011;380;48.738;9.214;2023-02-28T07:20:22;7.80;;;4.77;;
793;SDS011;380;48.738;9.214;2023-02-28T07:22:48;5.67;;;3.63;;
793;SDS011;380;48.738;9.214;2023-02-28T07:25:20;2.67;;;1.73;;
793;SDS011;380;48.738;9.214;2023-02-28T07:27:46;5.93;;;4.23;;
793;SDS011;380;48.738;9.214;2023-02-28T07:30:12;4.93;;;3.63;;
793;SDS011;380;48.738;9.214;2023-02-28T07:32:38;6.97;;;4.23;;
793;SDS011;380;48.738;9.214;2023-02-28T07:35:04;4.40;;;3.33;;
793;SDS011;380;48.738;9.214;2023-02-28T07:37:30;3.87;;;3.23;;
793;SDS011;380;48.738;9.214;2023-02-28T07:40:01;4.73;;;4.23;;
793;SDS011;380;48.738;9.214;2023-02-28T07:42:29;4.00;;;2.50;;
793;SDS011;380;48.738;9.214;2023-02-28T07:44:55;6.97;;;5.47;;
793;SDS011;380;48.738;9.214;2023-02-28T07:47:21;7.07;;;4.33;;
793;SDS011;380;48.738;9.214;2023-02-28T07:49:47;3.20;;;2.77;;
793;SDS011;380;48.738;9.214;2023-02-28T07:52:13;8.17;;;5.93;;
793;SDS011;380;48.738;9.214;2023-02-28T07:54:39;6.00;;;4.13;;
793;SDS011;380;48.738;9.214;2023-02-28T07:57:04;4.67;;;3.27;;
793;SDS011;380;48.738;9.214;2023-02-28T07:59:30;5.23;;;3.43;;
793;SDS011;380;48.738;9.214;2023-02-28T08:01:57;4.90;;;3.57;;
793;SDS011;380;48.738;9.214;2023-02-28T08:04:24;6.93;;;4.63;;
793;SDS011;380;48.738;9.214;2023-02-28T08:06:50;5.80;;;4.67;;
793;SDS011;380;48.738;9.214;2023-02-28T08:09:21;4.97;;;4.47;;
793;SDS011;380;48.738;9.214;2023-02-28T08:11:47;4.00;;;2.83;;
793;SDS011;380;48.738;9.214;2023-02-28T08:14:13;5.53;;;3.83;;
793;SDS011;380;48.738;9.214;2023-02-28T08:16:39;6.37;;;4.43;;
793;SDS011;380;48.738;9.214;2023-02-28T08:19:05;5.17;;;3.57;;
793;SDS011;380;48.738;9.214;2023-02-28T08:21:31;5.27;;;3.50;;
793;SDS011;380;48.738;9.214;2023-02-28T08:23:57;4.97;;;3.57;;
793;SDS011;380;48.738;9.214;2023-02-28T08:26:23;7.10;;;4.73;;
793;SDS011;380;48.738;9.214;2023-02-28T08:28:49;3.00;;;2.30;;
793;SDS011;380;48.738;9.214;2023-02-28T08:31:16;5.23;;;4.37;;
793;SDS011;380;48.738;9.214;2023-02-28T08:33:42;8.20;;;4.73;;
793;SDS011;380;48.738;9.214;2023-02-28T08:36:09;5.33;;;3.97;;
793;SDS011;380;48.738;9.214;2023-02-28T08:38:36;3.77;;;3.43;;
793;SDS011;380;48.738;9.214;2023-02-28T08:41:06;5.77;;;4.73;;
793;SDS011;380;48.738;9.214;2023-02-28T08:43:33;4.50;;;4.10;;
793;SDS011;380;48.738;9.214;2023-02-28T08:45:59;5.70;;;3.77;;
793;SDS011;380;48.738;9.214;2023-02-28T08:48:26;6.60;;;4.63;;
793;SDS011;380;48.738;9.214;2023-02-28T08:51:11;4.93;;;4.43;;
793;SDS011;380;48.738;9.214;2023-02-28T08:53:38;7.03;;;4.57;;
793;SDS011;380;48.738;9.214;2023-02-28T08:56:08;5.50;;;4.90;;
793;SDS011;380;48.738;9.214;2023-02-28T08:58:35;4.13;;;3.72;;
793;SDS011;380;48.738;9.214;2023-02-28T09:01:06;7.67;;;5.00;;
793;SDS011;380;48.738;9.214;2023-02-28T09:03:33;9.03;;;3.90;;
793;SDS011;380;48.738;9.214;2023-02-28T09:05:59;6.53;;;4.83;;
793;SDS011;380;48.738;9.214;2023-02-28T09:08:26;5.13;;;4.30;;
793;SDS011;380;48.738;9.214;2023-02-28T09:10:53;4.93;;;4.27;;
793;SDS011;380;48.738;9.214;2023-02-28T09:13:19;5.17;;;4.57;;
793;SDS011;380;48.738;9.214;2023-02-28T09:15:45;4.23;;;3.83;;
793;SDS011;380;48.738;9.214;2023-02-28T09:18:12;7.30;;;4.93;;
793;SDS011;380;48.738;9.214;2023-02-28T09:20:38;6.23;;;4.40;;
793;SDS011;380;48.738;9.214;2023-02-28T09:23:05;5.87;;;4.07;;
793;SDS011;380;48.738;9.214;2023-02-28T09:25:31;5.90;;;5.27;;
793;SDS011;380;48.738;9.214;2023-02-28T09:27:57;5.63;;;3.93;;
793;SDS011;380;48.738;9.214;2023-02-28T09:30:23;5.87;;;5.27;;
793;SDS011;380;48.738;9.214;2023-02-28T09:32:49;5.37;;;4.00;;
793;SDS011;380;48.738;9.214;2023-02-28T09:35:19;1.23;;;1.13;;
793;SDS011;380;48.738;9.214;2023-02-28T09:37:46;5.33;;;4.00;;
793;SDS011;380;48.738;9.214;2023-02-28T09:40:12;6.13;;;4.20;;
793;SDS011;380;48.738;9.214;2023-02-28T09:42:39;6.57;;;4.70;;
793;SDS011;380;48.738;9.214;2023-02-28T09:45:06;7.00;;;5.43;;
793;SDS011;380;48.738;9.214;2023-02-28T09:47:38;7.17;;;4.97;;
793;SDS011;380;48.738;9.214;2023-02-28T09:52:50;5.57;;;4.53;;
793;SDS011;380;48.738;9.214;2023-02-28T09:55:22;4.03;;;3.30;;
793;SDS011;380;48.738;9.214;2023-02-28T09:57:50;3.33;;;3.03;;
793;SDS011;380;48.738;9.214;2023-02-28T10:00:18;7.30;;;3.20;;
793;SDS011;380;48.738;9.214;2023-02-28T10:02:51;4.63;;;3.70;;
793;SDS011;380;48.738;9.214;2023-02-28T10:05:23;5.20;;;4.63;;
793;SDS011;380;48.738;9.214;2023-02-28T10:08:04;5.60;;;3.88;;
793;SDS011;380;48.738;9.214;2023-02-28T10:13:04;9.32;;;5.40;;
793;SDS011;380;48.738;9.214;2023-02-28T10:15:31;5.93;;;4.73;;
793;SDS011;380;48.738;9.214;2023-02-28T10:17:59;9.03;;;5.83;;
793;SDS011;380;48.738;9.214;2023-02-28T10:20:26;6.20;;;5.70;;
793;SDS011;380;48.738;9.214;2023-02-28T10:25:32;5.87;;;4.37;;
793;SDS011;380;48.738;9.214;2023-02-28T10:28:00;8.00;;;4.93;;
793;SDS011;380;48.738;9.214;2023-02-28T10:30:30;7.67;;;4.93;;
793;SDS011;380;48.738;9.214;2023-02-28T10:32:56;6.67;;;5.97;;
793;SDS011;380;48.738;9.214;2023-02-28T10:35:23;12.20;;;5.73;;
793;SDS011;380;48.738;9.214;2023-02-28T10:37:54;6.57;;;5.20;;
793;SDS011;380;48.738;9.214;2023-02-28T10:42:57;6.20;;;4.87;;
793;SDS011;380;48.738;9.214;2023-02-28T10:45:23;8.93;;;5.20;;
793;SDS011;380;48.738;9.214;2023-02-28T10:47:54;7.03;;;5.40;;
793;SDS011;380;48.738;9.214;2023-02-28T10:52:53;7.07;;;5.37;;
793;SDS011;380;48.738;9.214;2023-02-28T10:55:21;8.97;;;5.97;;
793;SDS011;380;48.738;9.214;2023-02-28T10:57:48;10.73;;;7.20;;
793;SDS011;380;48.738;9.214;2023-02-28T11:00:16;8.50;;;5.43;;
793;SDS011;380;48.738;9.214;2023-02-28T11:02:43;6.27;;;4.67;;
793;SDS011;380;48.738;9.214;2023-02-28T11:05:25;8.17;;;6.63;;
793;SDS011;380;48.738;9.214;2023-02-28T11:07:52;4.50;;;4.03;;
793;SDS011;380;48.738;9.214;2023-02-28T11:10:19;6.87;;;4.90;;
793;SDS011;380;48.738;9.214;2023-02-28T11:12:46;5.43;;;4.23;;
793;SDS011;380;48.738;9.214;2023-02-28T11:15:21;7.73;;;5.97;;
793;SDS011;380;48.738;9.214;2023-02-28T11:17:58;6.57;;;5.30;;
793;SDS011;380;48.738;9.214;2023-02-28T11:20:26;7.40;;;5.07;;
793;SDS011;380;48.738;9.214;2023-02-28T11:22:54;8.17;;;6.20;;
793;SDS011;380;48.738;9.214;2023-02-28T11:25:22;9.97;;;6.87;;
793;SDS011;380;48.738;9.214;2023-02-28T11:27:49;7.07;;;4.47;;
793;SDS011;380;48.738;9.214;2023-02-28T11:30:23;6.17;;;5.57;;
793;SDS011;380;48.738;9.214;2023-02-28T11:32:49;6.30;;;5.53;;
793;SDS011;380;48.738;9.214;2023-02-28T11:35:27;8.27;;;7.13;;
793;SDS011;380;48.738;9.214;2023-02-28T11:37:54;13.83;;;6.13;;
793;SDS011;380;48.738;9.214;2023-02-28T11:40:31;8.03;;;4.83;;
793;SDS011;380;48.738;9.214;2023-02-28T11:43:08;6.07;;;4.10;;
793;SDS011;380;48.738;9.214;2023-02-28T11:45:44;7.27;;;5.47;;
793;SDS011;380;48.738;9.214;2023-02-28T11:51:08;7.27;;;5.63;;
793;SDS011;380;48.738;9.214;2023-02-28T11:53:52;5.53;;;4.37;;
793;SDS011;380;48.738;9.214;2023-02-28T11:56:29;6.53;;;5.20;;
793;SDS011;380;48.738;9.214;2023-02-28T12:11:54;4.97;;;4.47;;
793;SDS011;380;48.738;9.214;2023-02-28T12:17:05;6.50;;;4.37;;
793;SDS011;380;48.738;9.214;2023-02-28T12:19:41;6.63;;;5.87;;
793;SDS011;380;48.738;9.214;2023-02-28T12:24:47;6.07;;;5.47;;
793;SDS011;380;48.738;9.214;2023-02-28T12:27:17;6.10;;;5.10;;
793;SDS011;380;48.738;9.214;2023-02-28T12:29:51;7.27;;;5.93;;
793;SDS011;380;48.738;9.214;2023-02-28T12:32:21;7.10;;;6.17;;
793;SDS011;380;48.738;9.214;2023-02-28T12:34:53;9.00;;;5.37;;
793;SDS011;380;48.738;9.214;2023-02-28T12:37:37;7.97;;;5.23;;
793;SDS011;380;48.738;9.214;2023-02-28T12:40:06;5.17;;;4.67;;
793;SDS011;380;48.738;9.214;2023-02-28T12:42:34;7.38;;;5.05;;
793;SDS011;380;48.738;9.214;2023-02-28T12:45:04;7.47;;;6.43;;
793;SDS011;380;48.738;9.214;2023-02-28T12:47:34;5.82;;;4.90;;
793;SDS011;380;48.738;9.214;2023-02-28T12:50:02;8.80;;;4.90;;
793;SDS011;380;48.738;9.214;2023-02-28T12:55:15;6.30;;;5.57;;
793;SDS011;380;48.738;9.214;2023-02-28T12:57:48;8.23;;;5.73;;
793;SDS011;380;48.738;9.214;2023-02-28T13:05:36;6.63;;;5.50;;
793;SDS011;380;48.738;9.214;2023-02-28T13:10:50;8.57;;;4.70;;
793;SDS011;380;48.738;9.214;2023-02-28T13:13:26;4.80;;;4.00;;
793;SDS011;380;48.738;9.214;2023-02-28T13:18:30;5.83;;;4.30;;
793;SDS011;380;48.738;9.214;2023-02-28T13:20:57;9.30;;;5.73;;
793;SDS011;380;48.738;9.214;2023-02-28T13:23:40;5.97;;;4.87;;
793;SDS011;380;48.738;9.214;2023-02-28T13:26:06;7.67;;;4.93;;
793;SDS011;380;48.738;9.214;2023-02-28T13:31:18;4.05;;;3.63;;
793;SDS011;380;48.738;9.214;2023-02-28T13:38:47;12.05;;;5.47;;
793;SDS011;380;48.738;9.214;2023-02-28T13:46:34;8.20;;;6.15;;
793;SDS011;380;48.738;9.214;2023-02-28T13:51:46;6.43;;;4.82;;
793;SDS011;380;48.738;9.214;2023-02-28T13:56:44;5.85;;;4.45;;
793;SDS011;380;48.738;9.214;2023-02-28T13:59:17;8.27;;;4.72;;
793;SDS011;380;48.738;9.214;2023-02-28T14:06:50;6.38;;;5.78;;
793;SDS011;380;48.738;9.214;2023-02-28T14:11:43;5.50;;;4.35;;
793;SDS011;380;48.738;9.214;2023-02-28T14:14:53;6.22;;;4.60;;
793;SDS011;380;48.738;9.214;2023-02-28T14:16:56;7.03;;;5.22;;
793;SDS011;380;48.738;9.214;2023-02-28T14:19:24;5.15;;;4.65;;
793;SDS011;380;48.738;9.214;2023-02-28T14:24:42;5.72;;;4.30;;
793;SDS011;380;48.738;9.214;2023-02-28T14:32:32;8.25;;;5.93;;
793;SDS011;380;48.738;9.214;2023-02-28T14:35:05;5.90;;;4.47;;
793;SDS011;380;48.738;9.214;2023-02-28T14:37:38;3.03;;;2.33;;
793;SDS011;380;48.738;9.214;2023-02-28T14:40:11;9.90;;;6.55;;
793;SDS011;380;48.738;9.214;2023-02-28T14:42:38;8.15;;;6.15;;
793;SDS011;380;48.738;9.214;2023-02-28T14:45:16;7.43;;;4.75;;
793;SDS011;380;48.738;9.214;2023-02-28T14:47:43;6.82;;;5.60;;
793;SDS011;380;48.738;9.214;2023-02-28T14:50:17;7.22;;;5.70;;
793;SDS011;380;48.738;9.214;2023-02-28T14:52:43;7.93;;;5.93;;
793;SDS011;380;48.738;9.214;2023-02-28T14:55:12;6.10;;;5.30;;
793;SDS011;380;48.738;9.214;2023-02-28T14:57:41;8.55;;;6.82;;
793;SDS011;380;48.738;9.214;2023-02-28T15:00:14;7.07;;;4.28;;
793;SDS011;380;48.738;9.214;2023-02-28T15:02:41;6.75;;;6.05;;
793;SDS011;380;48.738;9.214;2023-02-28T15:07:36;6.95;;;4.90;;
793;SDS011;380;48.738;9.214;2023-02-28T15:12:34;6.13;;;4.70;;
793;SDS011;380;48.738;9.214;2023-02-28T15:15:00;8.35;;;5.55;;
793;SDS011;380;48.738;9.214;2023-02-28T15:17:26;6.13;;;5.28;;
793;SDS011;380;48.738;9.214;2023-02-28T15:19:53;5.78;;;5.07;;
793;SDS011;380;48.738;9.214;2023-02-28T15:22:31;5.63;;;4.67;;
793;SDS011;380;48.738;9.214;2023-02-28T15:25:00;6.70;;;4.60;;
793;SDS011;380;48.738;9.214;2023-02-28T15:27:29;5.78;;;5.00;;
793;SDS011;380;48.738;9.214;2023-02-28T15:30:00;7.35;;;5.38;;
793;SDS011;380;48.738;9.214;2023-02-28T15:32:36;6.10;;;4.72;;
793;SDS011;380;48.738;9.214;2023-02-28T15:37:54;6.85;;;4.63;;
793;SDS011;380;48.738;9.214;2023-02-28T15:40:25;7.03;;;4.72;;
793;SDS011;380;48.738;9.214;2023-02-28T15:43:06;7.18;;;4.90;;
793;SDS011;380;48.738;9.214;2023-02-28T15:47:59;6.50;;;5.35;;
793;SDS011;380;48.738;9.214;2023-02-28T15:50:27;6.28;;;5.22;;
793;SDS011;380;48.738;9.214;2023-02-28T15:52:53;4.15;;;3.75;;
793;SDS011;380;48.738;9.214;2023-02-28T15:55:21;5.80;;;4.28;;
793;SDS011;380;48.738;9.214;2023-02-28T15:57:49;7.00;;;5.13;;
793;SDS011;380;48.738;9.214;2023-02-28T16:00:19;7.53;;;5.80;;
793;SDS011;380;48.738;9.214;2023-02-28T16:02:45;6.57;;;5.10;;
793;SDS011;380;48.738;9.214;2023-02-28T16:07:41;8.23;;;6.82;;
793;SDS011;380;48.738;9.214;2023-02-28T16:10:09;8.43;;;5.80;;
793;SDS011;380;48.738;9.214;2023-02-28T16:12:36;6.70;;;5.13;;
793;SDS011;380;48.738;9.214;2023-02-28T16:15:06;7.72;;;5.90;;
793;SDS011;380;48.738;9.214;2023-02-28T16:17:33;6.97;;;5.75;;
793;SDS011;380;48.738;9.214;2023-02-28T16:19:59;8.38;;;6.35;;
793;SDS011;380;48.738;9.214;2023-02-28T16:22:25;6.32;;;5.22;;
793;SDS011;380;48.738;9.214;2023-02-28T16:24:51;6.73;;;6.00;;
793;SDS011;380;48.738;9.214;2023-02-28T16:27:19;8.02;;;6.63;;
793;SDS011;380;48.738;9.214;2023-02-28T16:29:46;7.47;;;5.13;;
793;SDS011;380;48.738;9.214;2023-02-28T16:32:15;17.20;;;6.32;;
793;SDS011;380;48.738;9.214;2023-02-28T16:34:43;8.32;;;6.60;;
793;SDS011;380;48.738;9.214;2023-02-28T16:37:16;5.78;;;4.80;;
793;SDS011;380;48.738;9.214;2023-02-28T16:39:43;7.43;;;6.13;;
793;SDS011;380;48.738;9.214;2023-02-28T16:42:10;9.15;;;6.07;;
793;SDS011;380;48.738;9.214;2023-02-28T16:44:41;6.50;;;5.45;;
793;SDS011;380;48.738;9.214;2023-02-28T16:47:08;7.00;;;5.33;;
793;SDS011;380;48.738;9.214;2023-02-28T16:49:35;7.57;;;5.70;;
793;SDS011;380;48.738;9.214;2023-02-28T16:52:01;7.50;;;6.10;;
793;SDS011;380;48.738;9.214;2023-02-28T16:54:27;6.25;;;4.22;;
793;SDS011;380;48.738;9.214;2023-02-28T16:56:53;7.40;;;5.00;;
793;SDS011;380;48.738;9.214;2023-02-28T16:59:22;8.38;;;5.78;;
793;SDS011;380;48.738;9.214;2023-02-28T17:01:49;8.48;;;6.30;;
793;SDS011;380;48.738;9.214;2023-02-28T17:04:16;6.05;;;4.40;;
793;SDS011;380;48.738;9.214;2023-02-28T17:06:42;6.43;;;5.27;;
793;SDS011;380;48.738;9.214;2023-02-28T17:09:11;6.53;;;5.90;;
793;SDS011;380;48.738;9.214;2023-02-28T17:11:40;10.63;;;7.60;;
793;SDS011;380;48.738;9.214;2023-02-28T17:14:06;6.78;;;6.10;;
793;SDS011;380;48.738;9.214;2023-02-28T17:16:32;6.00;;;5.37;;
793;SDS011;380;48.738;9.214;2023-02-28T17:19:03;6.03;;;5.43;;
793;SDS011;380;48.738;9.214;2023-02-28T17:23:56;6.55;;;4.10;;
793;SDS011;380;48.738;9.214;2023-02-28T17:26:24;10.17;;;5.23;;
793;SDS011;380;48.738;9.214;2023-02-28T17:28:51;12.40;;;7.10;;
793;SDS011;380;48.738;9.214;2023-02-28T17:31:18;8.80;;;6.17;;
793;SDS011;380;48.738;9.214;2023-02-28T17:33:44;6.33;;;5.43;;
793;SDS011;380;48.738;9.214;2023-02-28T17:36:14;8.63;;;7.27;;
793;SDS011;380;48.738;9.214;2023-02-28T17:38:40;9.02;;;7.13;;
793;SDS011;380;48.738;9.214;2023-02-28T17:41:07;7.97;;;6.23;;
793;SDS011;380;48.738;9.214;2023-02-28T17:43:34;9.83;;;6.83;;
793;SDS011;380;48.738;9.214;2023-02-28T17:46:00;7.60;;;5.67;;
793;SDS011;380;48.738;9.214;2023-02-28T17:48:26;5.93;;;4.80;;
793;SDS011;380;48.738;9.214;2023-02-28T17:50:53;8.80;;;7.30;;
793;SDS011;380;48.738;9.214;2023-02-28T17:53:19;7.53;;;6.27;;
793;SDS011;380;48.738;9.214;2023-02-28T17:55:47;9.07;;;6.50;;
793;SDS011;380;48.738;9.214;2023-02-28T17:58:13;7.37;;;6.57;;
793;SDS011;380;48.738;9.214;2023-02-28T18:00:39;6.53;;;5.77;;
793;SDS011;380;48.738;9.214;2023-02-28T18:03:05;10.50;;;7.10;;